Aeroporto :
LOGIN :

Iscrizione | Disclaimer

   EN    FR    IT 

 










Sommario :    VFR   VFR Marginale   IFR   IFR Intensivo   IFR Molto Intensivo
Visibilità : 
Base nubi : 
>= 8 km
>= 3000ft
5 / 8 km
1000 / 3000 ft
1500m / 5 km
500 / 1000 ft
800 / 1500m
200 / 500 ft
< 800m
< 200 ft
Simboli :   Temporali  Nebbia  Neve Forte  Precipitazioni Forti  Vento > 20 kt
SIGMETs :   Varie  Temporali  Ghiacco  Turbolenza  Onda orograficha  Ceneri Vulcaniche






- Altitudine del aeroporto : 267 ft


EGDR - Culdrose Navy

ULTIMO METAR :
  • 270723Z 25015KT 9999 FEW020CB FEW025TCU 12/10 Q1009 TEMPO 5000 SHRA BKN025TCU RMK BLU TEMPO WHT

METARs OBSOLETI :
  • 270650Z 24015G26KT 9999 FEW010 FEW030TCU SCT080 12/10 Q1008 TEMPO 5000 SHRA BKN025TCU RMK BLU TEMPO WHT
  • 270624Z 24014KT 9999 FEW010 FEW018TCU BKN060 12/10 Q1008 TEMPO 5000 SHRA BKN025TCU RMK BLU TEMPO WHT
  • 270550Z 26011KT 9999 BKN010 11/11 Q1007
  • 270450Z AUTO 26006KT 9999 // FEW090/// 11/10 Q1006

TAF AMD TAF EGDR
Valido dal 27 a 06 ore il 27 a 15 ore UTC


270443Z 2706/2715 26018G30KT 9999 FEW030 SCT060
TEMPO 2706/2715 5000 SHRA BKN025TCU
PROB40
TEMPO 2706/2713 27020G35KT 3000 TSRA +SHRA SCT018 BKN020CB



MetMap, La meteo Aeronautica in un colpo d'occhio ! - Copyright ORBIFLY Dicembre 2007 - Disclaimer

ORBIFLY MET'MAP TEAM :

Programmazione e sviluppo : Alexandra Zaïnal
Concezione : Baudouin d'Aumeries
Aiuto per la programmazione : Marc-Olivier Méhu
Supporto tecnico e logistico : Manuel Goepfert
Aiuto per la traduzione : Arnaldo La Scala

Contatto : metmap@orbifly.com




FONTI E CREDITI :

   NOAA